sensor_id;sensor_type;location;lat;lon;timestamp;P1;durP1;ratioP1;P2;durP2;ratioP2
84702;SDS011;74927;50.988;11.318;2024-01-15T09:17:12;10.02;;;5.80;;
84702;SDS011;74927;50.988;11.318;2024-01-15T09:19:38;6.35;;;4.10;;
84702;SDS011;74927;50.988;11.318;2024-01-15T09:22:07;7.07;;;3.83;;
84702;SDS011;74927;50.988;11.318;2024-01-15T09:24:32;6.47;;;3.90;;
84702;SDS011;74927;50.988;11.318;2024-01-15T09:26:58;7.40;;;3.92;;
84702;SDS011;74927;50.988;11.318;2024-01-15T09:29:23;5.53;;;3.53;;
84702;SDS011;74927;50.988;11.318;2024-01-15T09:31:49;5.85;;;4.10;;
84702;SDS011;74927;50.988;11.318;2024-01-15T09:34:15;6.75;;;3.70;;
84702;SDS011;74927;50.988;11.318;2024-01-15T09:36:41;6.80;;;3.97;;
84702;SDS011;74927;50.988;11.318;2024-01-15T09:39:08;6.90;;;3.72;;
84702;SDS011;74927;50.988;11.318;2024-01-15T09:41:36;8.50;;;3.90;;
84702;SDS011;74927;50.988;11.318;2024-01-15T09:44:03;7.60;;;4.07;;
84702;SDS011;74927;50.988;11.318;2024-01-15T09:46:28;8.18;;;4.13;;
84702;SDS011;74927;50.988;11.318;2024-01-15T09:48:54;7.88;;;4.13;;
84702;SDS011;74927;50.988;11.318;2024-01-15T09:51:20;6.32;;;3.83;;
84702;SDS011;74927;50.988;11.318;2024-01-15T09:53:46;5.82;;;4.05;;
84702;SDS011;74927;50.988;11.318;2024-01-15T09:56:12;8.68;;;4.18;;
84702;SDS011;74927;50.988;11.318;2024-01-15T09:58:38;7.07;;;4.20;;
84702;SDS011;74927;50.988;11.318;2024-01-15T10:01:04;10.32;;;4.15;;
84702;SDS011;74927;50.988;11.318;2024-01-15T10:03:29;8.65;;;4.80;;
84702;SDS011;74927;50.988;11.318;2024-01-15T10:05:55;6.80;;;4.13;;
84702;SDS011;74927;50.988;11.318;2024-01-15T10:08:24;5.75;;;3.47;;
84702;SDS011;74927;50.988;11.318;2024-01-15T10:10:50;8.35;;;4.43;;
84702;SDS011;74927;50.988;11.318;2024-01-15T10:13:16;8.57;;;4.35;;
84702;SDS011;74927;50.988;11.318;2024-01-15T10:15:44;9.57;;;6.07;;
84702;SDS011;74927;50.988;11.318;2024-01-15T10:18:12;8.40;;;4.82;;
84702;SDS011;74927;50.988;11.318;2024-01-15T10:20:37;12.57;;;6.32;;
84702;SDS011;74927;50.988;11.318;2024-01-15T10:23:03;6.82;;;4.40;;
84702;SDS011;74927;50.988;11.318;2024-01-15T10:25:29;9.15;;;5.68;;
84702;SDS011;74927;50.988;11.318;2024-01-15T10:28:05;6.28;;;3.92;;
84702;SDS011;74927;50.988;11.318;2024-01-15T10:30:31;9.50;;;4.50;;
84702;SDS011;74927;50.988;11.318;2024-01-15T10:33:01;6.28;;;2.97;;
84702;SDS011;74927;50.988;11.318;2024-01-15T10:37:58;7.53;;;4.03;;
84702;SDS011;74927;50.988;11.318;2024-01-15T10:40:24;5.35;;;3.58;;
84702;SDS011;74927;50.988;11.318;2024-01-15T10:42:50;8.20;;;5.57;;
84702;SDS011;74927;50.988;11.318;2024-01-15T10:45:16;5.43;;;3.90;;
84702;SDS011;74927;50.988;11.318;2024-01-15T10:47:42;7.35;;;4.18;;
84702;SDS011;74927;50.988;11.318;2024-01-15T10:50:08;5.60;;;4.25;;
84702;SDS011;74927;50.988;11.318;2024-01-15T10:52:35;7.80;;;3.92;;
84702;SDS011;74927;50.988;11.318;2024-01-15T10:55:06;9.95;;;4.15;;
84702;SDS011;74927;50.988;11.318;2024-01-15T10:57:34;7.25;;;4.03;;
84702;SDS011;74927;50.988;11.318;2024-01-15T11:00:00;8.48;;;4.70;;
84702;SDS011;74927;50.988;11.318;2024-01-15T11:02:29;6.50;;;3.97;;
84702;SDS011;74927;50.988;11.318;2024-01-15T11:04:55;8.98;;;4.63;;
84702;SDS011;74927;50.988;11.318;2024-01-15T11:07:21;7.40;;;4.80;;
84702;SDS011;74927;50.988;11.318;2024-01-15T11:09:49;9.10;;;5.00;;
84702;SDS011;74927;50.988;11.318;2024-01-15T11:12:17;8.90;;;5.40;;
84702;SDS011;74927;50.988;11.318;2024-01-15T11:14:46;7.35;;;4.18;;
84702;SDS011;74927;50.988;11.318;2024-01-15T11:17:13;6.28;;;3.88;;
84702;SDS011;74927;50.988;11.318;2024-01-15T11:19:46;5.50;;;3.83;;
84702;SDS011;74927;50.988;11.318;2024-01-15T11:24:57;6.50;;;3.20;;
84702;SDS011;74927;50.988;11.318;2024-01-15T11:27:48;5.63;;;2.95;;
84702;SDS011;74927;50.988;11.318;2024-01-15T11:30:16;5.85;;;3.15;;
84702;SDS011;74927;50.988;11.318;2024-01-15T11:32:45;4.75;;;3.03;;
84702;SDS011;74927;50.988;11.318;2024-01-15T11:35:11;7.43;;;3.75;;
84702;SDS011;74927;50.988;11.318;2024-01-15T11:40:18;4.68;;;3.30;;
84702;SDS011;74927;50.988;11.318;2024-01-15T11:42:45;5.72;;;3.30;;
84702;SDS011;74927;50.988;11.318;2024-01-15T11:45:11;5.55;;;2.85;;
84702;SDS011;74927;50.988;11.318;2024-01-15T11:47:44;5.20;;;3.17;;
84702;SDS011;74927;50.988;11.318;2024-01-15T11:50:33;5.75;;;3.45;;
84702;SDS011;74927;50.988;11.318;2024-01-15T11:53:00;5.93;;;3.67;;
84702;SDS011;74927;50.988;11.318;2024-01-15T11:55:28;6.35;;;3.65;;
84702;SDS011;74927;50.988;11.318;2024-01-15T11:57:58;5.65;;;3.47;;
84702;SDS011;74927;50.988;11.318;2024-01-15T12:00:26;5.93;;;2.95;;
84702;SDS011;74927;50.988;11.318;2024-01-15T12:02:53;5.43;;;3.60;;
84702;SDS011;74927;50.988;11.318;2024-01-15T12:05:19;6.28;;;3.10;;
84702;SDS011;74927;50.988;11.318;2024-01-15T12:07:46;4.55;;;2.80;;
84702;SDS011;74927;50.988;11.318;2024-01-15T12:10:14;5.25;;;2.83;;
84702;SDS011;74927;50.988;11.318;2024-01-15T12:15:25;6.65;;;3.92;;
84702;SDS011;74927;50.988;11.318;2024-01-15T12:17:54;4.15;;;2.95;;
84702;SDS011;74927;50.988;11.318;2024-01-15T12:20:22;5.50;;;3.20;;
84702;SDS011;74927;50.988;11.318;2024-01-15T12:22:49;4.53;;;2.75;;
84702;SDS011;74927;50.988;11.318;2024-01-15T12:25:14;4.38;;;3.15;;
84702;SDS011;74927;50.988;11.318;2024-01-15T12:27:40;4.28;;;2.80;;
84702;SDS011;74927;50.988;11.318;2024-01-15T12:30:05;5.35;;;3.03;;
84702;SDS011;74927;50.988;11.318;2024-01-15T12:32:32;3.60;;;2.42;;
84702;SDS011;74927;50.988;11.318;2024-01-15T12:34:57;3.00;;;2.03;;
84702;SDS011;74927;50.988;11.318;2024-01-15T12:37:23;5.55;;;3.40;;
84702;SDS011;74927;50.988;11.318;2024-01-15T12:39:49;4.15;;;2.78;;
84702;SDS011;74927;50.988;11.318;2024-01-15T12:42:14;4.70;;;3.13;;
84702;SDS011;74927;50.988;11.318;2024-01-15T12:44:41;5.25;;;3.13;;
84702;SDS011;74927;50.988;11.318;2024-01-15T12:47:07;5.03;;;2.70;;
84702;SDS011;74927;50.988;11.318;2024-01-15T12:49:32;4.85;;;3.00;;
84702;SDS011;74927;50.988;11.318;2024-01-15T12:51:58;5.22;;;3.38;;
84702;SDS011;74927;50.988;11.318;2024-01-15T12:54:24;4.95;;;3.30;;
84702;SDS011;74927;50.988;11.318;2024-01-15T12:56:51;4.60;;;3.72;;
84702;SDS011;74927;50.988;11.318;2024-01-15T12:59:17;5.28;;;3.42;;
84702;SDS011;74927;50.988;11.318;2024-01-15T13:01:43;5.28;;;2.90;;
84702;SDS011;74927;50.988;11.318;2024-01-15T13:04:09;5.88;;;3.53;;
84702;SDS011;74927;50.988;11.318;2024-01-15T13:06:35;5.85;;;3.88;;
84702;SDS011;74927;50.988;11.318;2024-01-15T13:09:01;6.07;;;3.75;;
84702;SDS011;74927;50.988;11.318;2024-01-15T13:11:30;6.05;;;3.63;;
84702;SDS011;74927;50.988;11.318;2024-01-15T13:13:55;8.27;;;4.22;;
84702;SDS011;74927;50.988;11.318;2024-01-15T13:16:22;6.50;;;3.95;;
84702;SDS011;74927;50.988;11.318;2024-01-15T13:18:47;7.55;;;3.80;;
84702;SDS011;74927;50.988;11.318;2024-01-15T13:21:14;5.13;;;3.25;;
84702;SDS011;74927;50.988;11.318;2024-01-15T13:23:40;5.70;;;2.97;;
84702;SDS011;74927;50.988;11.318;2024-01-15T13:26:05;5.90;;;4.00;;
84702;SDS011;74927;50.988;11.318;2024-01-15T13:28:32;4.57;;;3.58;;
84702;SDS011;74927;50.988;11.318;2024-01-15T13:30:59;4.45;;;3.17;;
84702;SDS011;74927;50.988;11.318;2024-01-15T13:33:28;4.88;;;3.40;;
84702;SDS011;74927;50.988;11.318;2024-01-15T13:35:53;7.25;;;3.33;;
84702;SDS011;74927;50.988;11.318;2024-01-15T13:38:19;8.15;;;4.05;;
84702;SDS011;74927;50.988;11.318;2024-01-15T13:40:44;4.75;;;3.50;;
84702;SDS011;74927;50.988;11.318;2024-01-15T13:43:10;4.90;;;3.17;;
84702;SDS011;74927;50.988;11.318;2024-01-15T13:45:36;6.75;;;3.97;;
84702;SDS011;74927;50.988;11.318;2024-01-15T13:48:02;7.40;;;3.88;;
84702;SDS011;74927;50.988;11.318;2024-01-15T13:50:30;5.47;;;3.60;;
84702;SDS011;74927;50.988;11.318;2024-01-15T13:52:56;5.43;;;3.80;;
84702;SDS011;74927;50.988;11.318;2024-01-15T13:55:21;4.85;;;3.28;;
84702;SDS011;74927;50.988;11.318;2024-01-15T13:57:47;4.50;;;3.75;;
84702;SDS011;74927;50.988;11.318;2024-01-15T14:00:13;6.78;;;4.22;;
84702;SDS011;74927;50.988;11.318;2024-01-15T14:02:43;6.80;;;4.63;;
84702;SDS011;74927;50.988;11.318;2024-01-15T14:05:09;8.27;;;5.50;;
84702;SDS011;74927;50.988;11.318;2024-01-15T14:07:34;10.52;;;5.53;;
84702;SDS011;74927;50.988;11.318;2024-01-15T14:09:59;22.58;;;10.43;;
84702;SDS011;74927;50.988;11.318;2024-01-15T14:12:25;5.20;;;3.70;;
84702;SDS011;74927;50.988;11.318;2024-01-15T14:14:51;7.68;;;5.18;;
84702;SDS011;74927;50.988;11.318;2024-01-15T14:17:17;6.88;;;4.47;;
84702;SDS011;74927;50.988;11.318;2024-01-15T14:19:42;5.43;;;4.07;;
84702;SDS011;74927;50.988;11.318;2024-01-15T14:22:08;5.38;;;2.83;;
84702;SDS011;74927;50.988;11.318;2024-01-15T14:24:33;4.97;;;3.58;;
84702;SDS011;74927;50.988;11.318;2024-01-15T14:26:59;5.68;;;3.72;;
84702;SDS011;74927;50.988;11.318;2024-01-15T14:29:24;4.97;;;4.30;;
84702;SDS011;74927;50.988;11.318;2024-01-15T14:31:51;9.98;;;3.97;;
84702;SDS011;74927;50.988;11.318;2024-01-15T14:34:17;6.10;;;4.05;;
84702;SDS011;74927;50.988;11.318;2024-01-15T14:36:43;5.57;;;3.33;;
84702;SDS011;74927;50.988;11.318;2024-01-15T14:39:09;7.10;;;4.35;;
84702;SDS011;74927;50.988;11.318;2024-01-15T14:41:34;6.20;;;3.92;;
84702;SDS011;74927;50.988;11.318;2024-01-15T14:44:00;8.90;;;4.28;;
84702;SDS011;74927;50.988;11.318;2024-01-15T14:46:25;6.15;;;4.32;;
84702;SDS011;74927;50.988;11.318;2024-01-15T14:48:52;7.45;;;3.97;;
84702;SDS011;74927;50.988;11.318;2024-01-15T14:51:18;5.97;;;3.85;;
84702;SDS011;74927;50.988;11.318;2024-01-15T14:53:43;6.57;;;4.15;;
84702;SDS011;74927;50.988;11.318;2024-01-15T14:56:09;5.32;;;3.75;;
84702;SDS011;74927;50.988;11.318;2024-01-15T14:58:34;8.73;;;4.47;;
84702;SDS011;74927;50.988;11.318;2024-01-15T15:01:00;6.85;;;3.53;;
84702;SDS011;74927;50.988;11.318;2024-01-15T15:03:25;4.60;;;2.85;;
84702;SDS011;74927;50.988;11.318;2024-01-15T15:05:51;7.88;;;4.30;;
84702;SDS011;74927;50.988;11.318;2024-01-15T15:08:16;6.32;;;3.25;;
84702;SDS011;74927;50.988;11.318;2024-01-15T15:10:41;6.38;;;4.35;;
84702;SDS011;74927;50.988;11.318;2024-01-15T15:13:07;6.32;;;4.32;;
84702;SDS011;74927;50.988;11.318;2024-01-15T15:15:32;7.15;;;5.38;;
84702;SDS011;74927;50.988;11.318;2024-01-15T15:17:59;10.45;;;4.93;;
84702;SDS011;74927;50.988;11.318;2024-01-15T15:20:24;5.80;;;4.10;;
84702;SDS011;74927;50.988;11.318;2024-01-15T15:22:50;4.18;;;3.42;;
84702;SDS011;74927;50.988;11.318;2024-01-15T15:25:20;6.07;;;3.70;;
84702;SDS011;74927;50.988;11.318;2024-01-15T15:27:46;8.07;;;3.63;;
84702;SDS011;74927;50.988;11.318;2024-01-15T15:30:12;5.20;;;3.33;;
84702;SDS011;74927;50.988;11.318;2024-01-15T15:32:38;6.65;;;3.40;;
84702;SDS011;74927;50.988;11.318;2024-01-15T15:35:03;4.68;;;3.10;;
84702;SDS011;74927;50.988;11.318;2024-01-15T15:37:29;9.00;;;4.47;;
84702;SDS011;74927;50.988;11.318;2024-01-15T15:39:55;5.03;;;3.65;;
84702;SDS011;74927;50.988;11.318;2024-01-15T15:42:21;5.75;;;3.72;;
84702;SDS011;74927;50.988;11.318;2024-01-15T15:44:48;6.50;;;3.67;;
84702;SDS011;74927;50.988;11.318;2024-01-15T15:47:15;4.28;;;3.20;;
84702;SDS011;74927;50.988;11.318;2024-01-15T15:49:41;7.10;;;3.53;;
84702;SDS011;74927;50.988;11.318;2024-01-15T15:52:07;5.88;;;3.70;;
84702;SDS011;74927;50.988;11.318;2024-01-15T15:54:33;5.85;;;3.65;;
84702;SDS011;74927;50.988;11.318;2024-01-15T15:56:58;5.65;;;3.63;;
84702;SDS011;74927;50.988;11.318;2024-01-15T15:59:23;7.82;;;2.83;;
84702;SDS011;74927;50.988;11.318;2024-01-15T16:01:49;6.80;;;3.20;;
84702;SDS011;74927;50.988;11.318;2024-01-15T16:04:14;5.88;;;2.75;;
84702;SDS011;74927;50.988;11.318;2024-01-15T16:06:40;3.70;;;2.22;;
84702;SDS011;74927;50.988;11.318;2024-01-15T16:09:07;3.33;;;1.92;;
84702;SDS011;74927;50.988;11.318;2024-01-15T16:11:35;3.97;;;2.35;;
84702;SDS011;74927;50.988;11.318;2024-01-15T16:14:02;3.45;;;2.53;;
84702;SDS011;74927;50.988;11.318;2024-01-15T16:16:27;3.65;;;2.78;;
84702;SDS011;74927;50.988;11.318;2024-01-15T16:18:53;4.93;;;2.40;;
84702;SDS011;74927;50.988;11.318;2024-01-15T16:21:18;5.93;;;2.50;;
84702;SDS011;74927;50.988;11.318;2024-01-15T16:23:43;7.25;;;3.20;;
84702;SDS011;74927;50.988;11.318;2024-01-15T16:26:09;4.32;;;3.10;;
84702;SDS011;74927;50.988;11.318;2024-01-15T16:28:34;4.10;;;2.80;;
84702;SDS011;74927;50.988;11.318;2024-01-15T16:31:00;4.72;;;2.50;;
84702;SDS011;74927;50.988;11.318;2024-01-15T16:33:25;4.63;;;2.38;;
84702;SDS011;74927;50.988;11.318;2024-01-15T16:35:50;5.47;;;2.88;;
84702;SDS011;74927;50.988;11.318;2024-01-15T16:38:16;3.33;;;2.42;;
84702;SDS011;74927;50.988;11.318;2024-01-15T16:40:42;7.22;;;3.65;;
84702;SDS011;74927;50.988;11.318;2024-01-15T16:43:07;6.43;;;3.15;;
84702;SDS011;74927;50.988;11.318;2024-01-15T16:45:33;3.83;;;2.63;;
84702;SDS011;74927;50.988;11.318;2024-01-15T16:47:59;5.97;;;3.58;;
84702;SDS011;74927;50.988;11.318;2024-01-15T16:50:25;4.97;;;3.33;;
84702;SDS011;74927;50.988;11.318;2024-01-15T16:52:50;4.93;;;3.05;;
84702;SDS011;74927;50.988;11.318;2024-01-15T16:55:16;3.80;;;2.40;;
84702;SDS011;74927;50.988;11.318;2024-01-15T16:57:42;4.93;;;2.95;;
84702;SDS011;74927;50.988;11.318;2024-01-15T17:00:07;5.55;;;3.30;;
84702;SDS011;74927;50.988;11.318;2024-01-15T17:02:33;8.32;;;3.58;;
84702;SDS011;74927;50.988;11.318;2024-01-15T17:04:59;4.15;;;3.15;;
84702;SDS011;74927;50.988;11.318;2024-01-15T17:07:25;5.45;;;2.40;;
84702;SDS011;74927;50.988;11.318;2024-01-15T17:09:50;5.07;;;3.30;;
84702;SDS011;74927;50.988;11.318;2024-01-15T17:12:16;20.52;;;7.70;;
84702;SDS011;74927;50.988;11.318;2024-01-15T17:14:41;6.43;;;5.03;;
84702;SDS011;74927;50.988;11.318;2024-01-15T17:17:06;9.18;;;4.78;;
84702;SDS011;74927;50.988;11.318;2024-01-15T17:19:32;3.70;;;3.00;;
84702;SDS011;74927;50.988;11.318;2024-01-15T17:21:57;2.97;;;2.45;;
84702;SDS011;74927;50.988;11.318;2024-01-15T17:24:23;6.03;;;2.45;;
84702;SDS011;74927;50.988;11.318;2024-01-15T17:26:49;5.53;;;3.67;;
84702;SDS011;74927;50.988;11.318;2024-01-15T17:29:15;7.63;;;3.65;;
84702;SDS011;74927;50.988;11.318;2024-01-15T17:31:41;8.15;;;3.78;;
84702;SDS011;74927;50.988;11.318;2024-01-15T17:34:06;3.50;;;2.45;;
84702;SDS011;74927;50.988;11.318;2024-01-15T17:36:32;5.07;;;2.42;;
84702;SDS011;74927;50.988;11.318;2024-01-15T17:38:58;3.78;;;1.63;;
84702;SDS011;74927;50.988;11.318;2024-01-15T17:41:23;8.45;;;4.28;;
84702;SDS011;74927;50.988;11.318;2024-01-15T17:43:49;4.43;;;2.30;;
84702;SDS011;74927;50.988;11.318;2024-01-15T17:46:14;4.32;;;2.08;;
84702;SDS011;74927;50.988;11.318;2024-01-15T17:48:40;3.58;;;2.00;;
84702;SDS011;74927;50.988;11.318;2024-01-15T17:51:05;7.22;;;2.78;;
84702;SDS011;74927;50.988;11.318;2024-01-15T17:53:31;6.25;;;3.33;;
84702;SDS011;74927;50.988;11.318;2024-01-15T17:55:57;6.07;;;3.63;;
84702;SDS011;74927;50.988;11.318;2024-01-15T17:58:25;4.60;;;2.10;;
84702;SDS011;74927;50.988;11.318;2024-01-15T18:00:50;17.20;;;6.63;;
84702;SDS011;74927;50.988;11.318;2024-01-15T18:03:16;15.65;;;5.25;;
84702;SDS011;74927;50.988;11.318;2024-01-15T18:05:42;7.03;;;3.28;;
84702;SDS011;74927;50.988;11.318;2024-01-15T18:08:08;3.28;;;2.60;;
84702;SDS011;74927;50.988;11.318;2024-01-15T18:10:33;4.72;;;2.92;;
84702;SDS011;74927;50.988;11.318;2024-01-15T18:12:59;4.45;;;1.80;;
84702;SDS011;74927;50.988;11.318;2024-01-15T18:15:25;3.88;;;1.67;;
84702;SDS011;74927;50.988;11.318;2024-01-15T18:17:50;4.00;;;2.70;;
84702;SDS011;74927;50.988;11.318;2024-01-15T18:20:16;3.53;;;1.58;;
84702;SDS011;74927;50.988;11.318;2024-01-15T18:22:42;3.13;;;2.50;;
84702;SDS011;74927;50.988;11.318;2024-01-15T18:25:08;4.57;;;2.33;;
84702;SDS011;74927;50.988;11.318;2024-01-15T18:27:33;3.03;;;2.70;;
84702;SDS011;74927;50.988;11.318;2024-01-15T18:29:59;3.38;;;1.90;;
84702;SDS011;74927;50.988;11.318;2024-01-15T18:32:24;3.40;;;1.80;;
84702;SDS011;74927;50.988;11.318;2024-01-15T18:34:51;2.58;;;2.38;;
84702;SDS011;74927;50.988;11.318;2024-01-15T18:37:16;2.63;;;2.00;;
84702;SDS011;74927;50.988;11.318;2024-01-15T18:39:42;4.25;;;2.10;;
84702;SDS011;74927;50.988;11.318;2024-01-15T18:42:08;4.50;;;2.47;;
84702;SDS011;74927;50.988;11.318;2024-01-15T18:44:34;12.55;;;6.15;;
84702;SDS011;74927;50.988;11.318;2024-01-15T18:46:59;2.70;;;2.20;;
84702;SDS011;74927;50.988;11.318;2024-01-15T18:49:25;5.65;;;3.80;;
84702;SDS011;74927;50.988;11.318;2024-01-15T18:51:50;3.60;;;1.65;;
84702;SDS011;74927;50.988;11.318;2024-01-15T18:54:17;3.17;;;2.35;;
84702;SDS011;74927;50.988;11.318;2024-01-15T18:56:43;1.67;;;1.58;;
84702;SDS011;74927;50.988;11.318;2024-01-15T18:59:09;4.07;;;1.83;;
84702;SDS011;74927;50.988;11.318;2024-01-15T19:01:34;2.90;;;1.75;;
84702;SDS011;74927;50.988;11.318;2024-01-15T19:04:01;2.50;;;1.80;;
84702;SDS011;74927;50.988;11.318;2024-01-15T19:06:26;2.40;;;1.63;;
84702;SDS011;74927;50.988;11.318;2024-01-15T19:08:52;2.38;;;2.17;;
84702;SDS011;74927;50.988;11.318;2024-01-15T19:11:18;3.30;;;2.10;;
84702;SDS011;74927;50.988;11.318;2024-01-15T19:13:44;1.83;;;1.40;;
84702;SDS011;74927;50.988;11.318;2024-01-15T19:16:10;3.78;;;1.92;;
84702;SDS011;74927;50.988;11.318;2024-01-15T19:18:36;2.50;;;1.88;;
84702;SDS011;74927;50.988;11.318;2024-01-15T19:21:01;4.05;;;1.77;;
84702;SDS011;74927;50.988;11.318;2024-01-15T19:23:28;2.60;;;1.67;;
84702;SDS011;74927;50.988;11.318;2024-01-15T19:25:54;5.13;;;2.25;;
84702;SDS011;74927;50.988;11.318;2024-01-15T19:28:19;2.72;;;2.03;;
84702;SDS011;74927;50.988;11.318;2024-01-15T19:30:45;2.05;;;1.83;;
84702;SDS011;74927;50.988;11.318;2024-01-15T19:33:14;4.90;;;3.08;;
84702;SDS011;74927;50.988;11.318;2024-01-15T19:35:40;4.95;;;3.35;;
84702;SDS011;74927;50.988;11.318;2024-01-15T19:38:05;3.17;;;2.58;;
84702;SDS011;74927;50.988;11.318;2024-01-15T19:40:33;4.93;;;2.80;;
84702;SDS011;74927;50.988;11.318;2024-01-15T19:42:59;3.50;;;3.20;;
84702;SDS011;74927;50.988;11.318;2024-01-15T19:45:26;2.30;;;1.95;;
84702;SDS011;74927;50.988;11.318;2024-01-15T19:47:52;10.23;;;4.72;;
84702;SDS011;74927;50.988;11.318;2024-01-15T19:50:17;5.70;;;3.60;;
84702;SDS011;74927;50.988;11.318;2024-01-15T19:52:43;2.45;;;1.98;;
84702;SDS011;74927;50.988;11.318;2024-01-15T19:55:08;5.38;;;3.30;;
84702;SDS011;74927;50.988;11.318;2024-01-15T19:57:33;2.20;;;1.75;;
84702;SDS011;74927;50.988;11.318;2024-01-15T19:59:59;4.43;;;2.83;;
84702;SDS011;74927;50.988;11.318;2024-01-15T20:02:24;3.10;;;2.35;;
84702;SDS011;74927;50.988;11.318;2024-01-15T20:04:50;2.40;;;1.80;;
84702;SDS011;74927;50.988;11.318;2024-01-15T20:07:15;2.63;;;1.83;;
84702;SDS011;74927;50.988;11.318;2024-01-15T20:09:41;3.47;;;2.25;;
84702;SDS011;74927;50.988;11.318;2024-01-15T20:12:06;2.65;;;1.77;;
84702;SDS011;74927;50.988;11.318;2024-01-15T20:14:32;1.70;;;1.58;;
84702;SDS011;74927;50.988;11.318;2024-01-15T20:16:57;2.10;;;1.65;;
84702;SDS011;74927;50.988;11.318;2024-01-15T20:19:26;2.92;;;1.98;;
84702;SDS011;74927;50.988;11.318;2024-01-15T20:21:51;2.10;;;1.67;;
84702;SDS011;74927;50.988;11.318;2024-01-15T20:24:17;4.80;;;2.20;;
84702;SDS011;74927;50.988;11.318;2024-01-15T20:26:46;2.95;;;1.73;;
84702;SDS011;74927;50.988;11.318;2024-01-15T20:29:11;1.77;;;1.67;;
84702;SDS011;74927;50.988;11.318;2024-01-15T20:31:37;2.80;;;1.63;;
84702;SDS011;74927;50.988;11.318;2024-01-15T20:34:03;2.70;;;1.98;;
84702;SDS011;74927;50.988;11.318;2024-01-15T20:36:28;2.38;;;1.88;;
84702;SDS011;74927;50.988;11.318;2024-01-15T20:38:53;2.25;;;1.60;;
84702;SDS011;74927;50.988;11.318;2024-01-15T20:41:19;5.03;;;2.17;;
84702;SDS011;74927;50.988;11.318;2024-01-15T20:43:45;4.38;;;1.52;;
84702;SDS011;74927;50.988;11.318;2024-01-15T20:46:11;2.58;;;1.92;;
84702;SDS011;74927;50.988;11.318;2024-01-15T20:48:36;2.08;;;1.55;;
84702;SDS011;74927;50.988;11.318;2024-01-15T20:51:02;4.45;;;1.77;;
84702;SDS011;74927;50.988;11.318;2024-01-15T20:53:27;2.78;;;1.40;;
84702;SDS011;74927;50.988;11.318;2024-01-15T20:55:53;2.55;;;1.48;;
84702;SDS011;74927;50.988;11.318;2024-01-15T20:58:21;4.05;;;1.20;;
84702;SDS011;74927;50.988;11.318;2024-01-15T21:00:50;4.75;;;1.25;;
84702;SDS011;74927;50.988;11.318;2024-01-15T21:03:15;6.22;;;1.52;;
84702;SDS011;74927;50.988;11.318;2024-01-15T21:05:42;6.18;;;3.00;;
84702;SDS011;74927;50.988;11.318;2024-01-15T21:08:07;4.32;;;1.90;;
84702;SDS011;74927;50.988;11.318;2024-01-15T21:10:33;2.42;;;1.40;;
84702;SDS011;74927;50.988;11.318;2024-01-15T21:12:58;3.30;;;1.90;;
84702;SDS011;74927;50.988;11.318;2024-01-15T21:15:24;4.28;;;1.55;;
84702;SDS011;74927;50.988;11.318;2024-01-15T21:17:50;5.78;;;1.60;;
84702;SDS011;74927;50.988;11.318;2024-01-15T21:20:15;4.40;;;1.50;;
84702;SDS011;74927;50.988;11.318;2024-01-15T21:22:41;3.95;;;1.63;;
84702;SDS011;74927;50.988;11.318;2024-01-15T21:25:06;3.95;;;1.80;;
84702;SDS011;74927;50.988;11.318;2024-01-15T21:27:32;4.20;;;1.67;;
84702;SDS011;74927;50.988;11.318;2024-01-15T21:29:57;7.47;;;3.08;;
84702;SDS011;74927;50.988;11.318;2024-01-15T21:32:23;3.25;;;1.88;;
84702;SDS011;74927;50.988;11.318;2024-01-15T21:34:49;6.18;;;3.78;;
84702;SDS011;74927;50.988;11.318;2024-01-15T21:37:17;5.43;;;2.67;;
84702;SDS011;74927;50.988;11.318;2024-01-15T21:39:42;4.65;;;2.92;;
84702;SDS011;74927;50.988;11.318;2024-01-15T21:42:08;7.20;;;2.42;;
84702;SDS011;74927;50.988;11.318;2024-01-15T21:44:37;2.80;;;1.67;;
84702;SDS011;74927;50.988;11.318;2024-01-15T21:47:03;5.22;;;3.08;;
84702;SDS011;74927;50.988;11.318;2024-01-15T21:49:28;5.30;;;2.28;;
84702;SDS011;74927;50.988;11.318;2024-01-15T21:51:54;2.78;;;1.42;;
84702;SDS011;74927;50.988;11.318;2024-01-15T21:54:19;4.05;;;2.28;;
84702;SDS011;74927;50.988;11.318;2024-01-15T21:56:44;11.80;;;4.68;;
84702;SDS011;74927;50.988;11.318;2024-01-15T21:59:10;7.22;;;2.40;;
84702;SDS011;74927;50.988;11.318;2024-01-15T22:01:35;3.90;;;2.60;;
84702;SDS011;74927;50.988;11.318;2024-01-15T22:04:01;4.32;;;2.22;;
84702;SDS011;74927;50.988;11.318;2024-01-15T22:06:26;9.07;;;2.65;;
84702;SDS011;74927;50.988;11.318;2024-01-15T22:08:51;3.22;;;1.63;;
84702;SDS011;74927;50.988;11.318;2024-01-15T22:11:17;4.43;;;2.28;;
84702;SDS011;74927;50.988;11.318;2024-01-15T22:13:43;4.85;;;2.67;;
84702;SDS011;74927;50.988;11.318;2024-01-15T22:16:09;2.20;;;2.00;;
84702;SDS011;74927;50.988;11.318;2024-01-15T22:18:35;6.00;;;2.33;;
84702;SDS011;74927;50.988;11.318;2024-01-15T22:21:01;3.70;;;1.48;;
84702;SDS011;74927;50.988;11.318;2024-01-15T22:23:26;5.47;;;2.75;;
84702;SDS011;74927;50.988;11.318;2024-01-15T22:25:52;3.00;;;1.60;;
84702;SDS011;74927;50.988;11.318;2024-01-15T22:28:18;2.75;;;1.60;;
84702;SDS011;74927;50.988;11.318;2024-01-15T22:30:46;2.80;;;1.75;;
84702;SDS011;74927;50.988;11.318;2024-01-15T22:33:14;4.13;;;1.60;;
84702;SDS011;74927;50.988;11.318;2024-01-15T22:35:39;3.63;;;1.52;;
84702;SDS011;74927;50.988;11.318;2024-01-15T22:38:05;2.50;;;1.60;;
84702;SDS011;74927;50.988;11.318;2024-01-15T22:40:30;3.30;;;1.77;;
84702;SDS011;74927;50.988;11.318;2024-01-15T22:42:57;2.28;;;1.70;;
84702;SDS011;74927;50.988;11.318;2024-01-15T22:45:22;3.25;;;1.50;;
84702;SDS011;74927;50.988;11.318;2024-01-15T22:47:49;3.78;;;1.60;;
84702;SDS011;74927;50.988;11.318;2024-01-15T22:50:20;4.45;;;1.45;;
84702;SDS011;74927;50.988;11.318;2024-01-15T22:52:47;5.38;;;1.60;;
84702;SDS011;74927;50.988;11.318;2024-01-15T22:55:13;3.97;;;1.58;;
84702;SDS011;74927;50.988;11.318;2024-01-15T22:57:38;3.55;;;1.75;;
84702;SDS011;74927;50.988;11.318;2024-01-15T23:00:04;3.80;;;1.52;;
84702;SDS011;74927;50.988;11.318;2024-01-15T23:02:43;2.17;;;1.17;;
84702;SDS011;74927;50.988;11.318;2024-01-15T23:05:08;3.78;;;1.58;;
84702;SDS011;74927;50.988;11.318;2024-01-15T23:07:33;2.67;;;1.50;;
84702;SDS011;74927;50.988;11.318;2024-01-15T23:09:59;5.25;;;2.00;;
84702;SDS011;74927;50.988;11.318;2024-01-15T23:12:24;2.67;;;1.23;;
84702;SDS011;74927;50.988;11.318;2024-01-15T23:14:51;4.57;;;1.42;;
84702;SDS011;74927;50.988;11.318;2024-01-15T23:17:17;2.25;;;1.52;;
84702;SDS011;74927;50.988;11.318;2024-01-15T23:19:45;2.40;;;1.38;;
84702;SDS011;74927;50.988;11.318;2024-01-15T23:22:10;2.00;;;1.35;;
84702;SDS011;74927;50.988;11.318;2024-01-15T23:24:37;3.05;;;1.35;;
84702;SDS011;74927;50.988;11.318;2024-01-15T23:27:02;3.95;;;1.70;;
84702;SDS011;74927;50.988;11.318;2024-01-15T23:29:28;2.58;;;1.20;;
84702;SDS011;74927;50.988;11.318;2024-01-15T23:31:53;3.25;;;1.92;;
84702;SDS011;74927;50.988;11.318;2024-01-15T23:34:19;2.55;;;1.38;;
84702;SDS011;74927;50.988;11.318;2024-01-15T23:36:44;4.90;;;1.52;;
84702;SDS011;74927;50.988;11.318;2024-01-15T23:39:10;2.47;;;1.52;;
84702;SDS011;74927;50.988;11.318;2024-01-15T23:41:35;5.43;;;2.60;;
84702;SDS011;74927;50.988;11.318;2024-01-15T23:44:01;4.72;;;1.52;;
84702;SDS011;74927;50.988;11.318;2024-01-15T23:46:29;2.78;;;1.85;;
84702;SDS011;74927;50.988;11.318;2024-01-15T23:48:55;1.65;;;1.10;;
84702;SDS011;74927;50.988;11.318;2024-01-15T23:51:20;2.17;;;1.58;;
84702;SDS011;74927;50.988;11.318;2024-01-15T23:53:46;1.75;;;1.08;;